Time;durP1;ratioP1;P1;durP2;ratioP2;P2;SDS_P1;SDS_P2;PMS_P1;PMS_P2;Temp;Humidity;BMP_temperature;BMP_pressure;BME280_temperature;BME280_humidity;BME280_pressure;Samples;Min_cycle;Max_cycle;Signal;HPM_P1;HPM_P2
2023/03/25 00:00:06;;;;;;;;;;;;;;;-142.75;100.00;76361.63;5032237;28;19913;-67
2023/03/25 00:02:31;;;;;;;;;;;;;;;-142.75;100.00;76375.41;5031981;28;20052;-67
2023/03/25 00:04:59;;;;;;;;;;;;;;;-142.75;100.00;76361.63;5013744;28;20031;-67
2023/03/25 00:07:24;;;;;;;;;;;;;;;-142.75;100.00;76357.69;5031945;28;19913;-66
2023/03/25 00:09:49;;;;;;;;;;;;;;;-142.75;100.00;76363.59;5014285;28;19924;-66
2023/03/25 00:12:15;;;;;;;;;;;;;;;-142.75;100.00;76355.72;5031950;28;19917;-67
2023/03/25 00:14:41;;;;;;;;;;;;;;;-142.75;100.00;76341.97;5031794;28;20428;-67
2023/03/25 00:17:07;;;;;;;;;;;;;;;-142.75;100.00;76357.69;5036019;28;19959;-67
2023/03/25 00:19:34;;;;;;;;;;;;;;;-142.75;100.00;76357.69;5036066;28;20336;-67
2023/03/25 00:22:00;;;;;;;;;;;;;;;-142.75;100.00;76361.63;5018219;28;19917;-67
2023/03/25 00:24:25;;;;;;;;;;;;;;;-142.75;100.00;76345.91;5017957;28;20388;-67
2023/03/25 00:26:53;;;;;;;;;;;;;;;-142.75;100.00;76347.84;5035990;28;19925;-67
2023/03/25 00:29:18;;;;;;;;;;;;;;;-142.75;100.00;76357.69;5035879;28;19913;-67
2023/03/25 00:31:43;;;;;;;;;;;;;;;-142.75;100.00;76361.63;5035744;28;20020;-66
2023/03/25 00:34:08;;;;;;;;;;;;;;;-142.75;100.00;76353.78;5035628;28;19920;-65
2023/03/25 00:36:36;;;;;;;;;;;;;;;-142.75;100.00;76351.81;5035762;28;19913;-67
2023/03/25 00:39:03;;;;;;;;;;;;;;;-142.75;100.00;76357.69;5035446;28;19924;-66
2023/03/25 00:41:28;;;;;;;;;;;;;;;-142.75;100.00;76341.97;5035556;28;20297;-66
2023/03/25 00:43:54;;;;;;;;;;;;;;;-142.75;100.00;76341.97;5017638;28;19917;-67
2023/03/25 00:46:21;;;;;;;;;;;;;;;-142.75;100.00;76330.16;5035590;28;20436;-66
2023/03/25 00:48:47;;;;;;;;;;;;;;;-142.75;100.00;76353.78;5035410;28;20419;-66
2023/03/25 00:51:12;;;;;;;;;;;;;;;-142.75;100.00;76353.78;5035322;28;19917;-67
2023/03/25 00:53:38;;;;;;;;;;;;;;;-142.75;100.00;76353.78;5035307;28;19913;-67
2023/03/25 00:56:04;;;;;;;;;;;;;;;-142.75;100.00;76345.91;5035402;28;19917;-67
2023/03/25 00:58:29;;;;;;;;;;;;;;;-142.75;100.00;76332.13;5029216;28;20304;-67
2023/03/25 01:00:58;;;;;;;;;;;;;;;-142.75;100.00;76345.91;5035063;28;19913;-66
2023/03/25 01:03:29;;;;;;;;;;;;;;;-142.75;100.00;76341.97;5017297;28;20031;-67
2023/03/25 01:05:56;;;;;;;;;;;;;;;-142.75;100.00;76340.00;5035210;28;19913;-67
2023/03/25 01:08:24;;;;;;;;;;;;;;;-142.75;100.00;76341.97;5035067;28;19925;-66
2023/03/25 01:10:50;;;;;;;;;;;;;;;-142.75;100.00;76341.97;5034865;28;19920;-67
2023/03/25 01:13:15;;;;;;;;;;;;;;;-142.75;100.00;76347.84;5035040;28;19920;-66
2023/03/25 01:15:40;;;;;;;;;;;;;;;-142.75;100.00;76347.84;5017156;28;19917;-67
2023/03/25 01:18:06;;;;;;;;;;;;;;;-142.75;100.00;76353.78;5034883;28;19916;-66
2023/03/25 01:20:31;;;;;;;;;;;;;;;-142.75;100.00;76361.63;5034964;28;19983;-66
2023/03/25 01:22:56;;;;;;;;;;;;;;;-142.75;100.00;76361.63;5034583;28;20317;-67
2023/03/25 01:25:21;;;;;;;;;;;;;;;-142.75;100.00;76359.66;5017043;28;19913;-67
2023/03/25 01:27:46;;;;;;;;;;;;;;;-142.75;100.00;76357.69;5034585;28;19913;-66
2023/03/25 01:30:12;;;;;;;;;;;;;;;-142.75;100.00;76361.63;5034780;28;19913;-67
2023/03/25 01:32:37;;;;;;;;;;;;;;;-142.75;100.00;76357.69;5034618;28;19967;-66
2023/03/25 01:35:04;;;;;;;;;;;;;;;-142.75;100.00;76347.84;5034620;28;19921;-66
2023/03/25 01:37:32;;;;;;;;;;;;;;;-142.75;100.00;76343.94;5034404;28;19917;-67
2023/03/25 01:39:58;;;;;;;;;;;;;;;-142.75;100.00;76355.72;5034512;28;19913;-66
2023/03/25 01:42:23;;;;;;;;;;;;;;;-142.75;100.00;76349.81;5034479;28;20295;-67
2023/03/25 01:44:51;;;;;;;;;;;;;;;-142.75;100.00;76349.81;5027102;28;20296;-66
2023/03/25 01:47:16;;;;;;;;;;;;;;;-142.75;100.00;76365.56;5034237;28;20008;-66
2023/03/25 01:49:43;;;;;;;;;;;;;;;-142.75;100.00;76357.69;5034445;28;20059;-67
2023/03/25 01:52:12;;;;;;;;;;;;;;;-142.75;100.00;76359.66;5016509;28;19956;-66
2023/03/25 01:54:38;;;;;;;;;;;;;;;-142.75;100.00;76343.94;5034145;28;20008;-66
2023/03/25 01:57:05;;;;;;;;;;;;;;;-142.75;100.00;76349.81;5034222;28;20026;-66
2023/03/25 01:59:30;;;;;;;;;;;;;;;-142.75;100.00;76347.84;5034245;28;19917;-67
2023/03/25 02:01:57;;;;;;;;;;;;;;;-142.75;100.00;76345.91;5034102;28;20369;-66
2023/03/25 02:04:26;;;;;;;;;;;;;;;-142.75;100.00;76328.19;5016099;28;19917;-66
2023/03/25 02:06:52;;;;;;;;;;;;;;;-142.75;100.00;76324.25;5033930;28;19917;-67
2023/03/25 02:09:20;;;;;;;;;;;;;;;-142.75;100.00;76324.25;5033944;28;19913;-66
2023/03/25 02:11:45;;;;;;;;;;;;;;;-142.75;100.00;76334.09;5016170;28;19913;-67
2023/03/25 02:14:16;;;;;;;;;;;;;;;-142.75;100.00;76326.22;5015975;28;19917;-67
2023/03/25 02:16:52;;;;;;;;;;;;;;;-142.75;100.00;76316.38;5033964;28;20343;-67
2023/03/25 02:19:23;;;;;;;;;;;;;;;-142.75;100.00;76326.22;5033886;28;19917;-67
2023/03/25 02:22:13;;;;;;;;;;;;;;;-142.75;100.00;76345.91;5033721;28;19970;-66
2023/03/25 02:24:42;;;;;;;;;;;;;;;-142.75;100.00;76326.22;5032639;28;20339;-66
2023/03/25 02:27:26;;;;;;;;;;;;;;;-142.75;100.00;76328.19;5033617;28;20450;-67
2023/03/25 02:30:10;;;;;;;;;;;;;;;-142.75;100.00;76312.44;5033605;28;19917;-67
2023/03/25 02:32:47;;;;;;;;;;;;;;;-142.75;100.00;76326.22;5033553;28;19913;-66
2023/03/25 02:35:25;;;;;;;;;;;;;;;-142.75;100.00;76310.47;5033440;28;19920;-66
2023/03/25 02:38:06;;;;;;;;;;;;;;;-142.75;100.00;76316.38;5032701;28;19924;-66
2023/03/25 02:40:45;;;;;;;;;;;;;;;-142.75;100.00;76316.38;5015631;28;20396;-66
2023/03/25 02:43:19;;;;;;;;;;;;;;;-142.75;100.00;76318.34;5015605;28;20411;-66
2023/03/25 02:45:48;;;;;;;;;;;;;;;-142.75;100.00;76304.56;5033333;28;19913;-66
2023/03/25 02:48:18;;;;;;;;;;;;;;;-142.75;100.00;76320.31;5033123;28;19936;-66
2023/03/25 02:50:50;;;;;;;;;;;;;;;-142.75;100.00;76318.34;5032811;28;20355;-66
2023/03/25 02:53:20;;;;;;;;;;;;;;;-142.75;100.00;76300.63;5033242;28;19913;-66
2023/03/25 02:55:46;;;;;;;;;;;;;;;-142.75;100.00;76330.16;5033141;28;20395;-66
2023/03/25 02:58:15;;;;;;;;;;;;;;;-142.75;100.00;76300.63;5032951;28;20303;-66
2023/03/25 03:00:41;;;;;;;;;;;;;;;-142.75;100.00;76306.53;5032868;28;19917;-64
2023/03/25 03:03:07;;;;;;;;;;;;;;;-142.75;100.00;76304.56;5032937;28;19916;-66
2023/03/25 03:05:32;;;;;;;;;;;;;;;-142.75;100.00;76282.91;5032801;28;20008;-67
2023/03/25 03:08:00;;;;;;;;;;;;;;;-142.75;100.00;76288.81;5032689;28;20300;-66
2023/03/25 03:10:30;;;;;;;;;;;;;;;-142.75;100.00;76282.91;5032919;28;19936;-65
2023/03/25 03:13:16;;;;;;;;;;;;;;;-142.75;100.00;76278.97;5015068;28;20010;-66
2023/03/25 03:15:41;;;;;;;;;;;;;;;-142.75;100.00;76290.78;5032720;28;19920;-66
2023/03/25 03:18:25;;;;;;;;;;;;;;;-142.75;100.00;76277.00;5032677;28;19913;-65
2023/03/25 03:20:59;;;;;;;;;;;;;;;-142.75;100.00;76263.22;5032636;28;19917;-65
2023/03/25 03:23:28;;;;;;;;;;;;;;;-142.75;100.00;76286.84;5032372;28;19917;-66
2023/03/25 03:26:03;;;;;;;;;;;;;;;-142.75;100.00;76273.06;5032534;28;19913;-65
2023/03/25 03:28:51;;;;;;;;;;;;;;;-142.75;100.00;76282.91;5032582;28;20008;-67
2023/03/25 03:31:35;;;;;;;;;;;;;;;-142.75;100.00;76282.91;5032436;28;19913;-67
2023/03/25 03:34:05;;;;;;;;;;;;;;;-142.75;100.00;76271.09;5032289;28;20391;-66
2023/03/25 03:36:36;;;;;;;;;;;;;;;-142.75;100.00;76282.91;5032536;28;19917;-66
2023/03/25 03:39:06;;;;;;;;;;;;;;;-142.75;100.00;76261.25;5014525;28;19917;-66
2023/03/25 03:41:33;;;;;;;;;;;;;;;-142.75;100.00;76271.09;5032291;28;19917;-65
2023/03/25 03:44:02;;;;;;;;;;;;;;;-142.75;100.00;76280.94;5031103;28;19917;-66
2023/03/25 03:46:37;;;;;;;;;;;;;;;-142.75;100.00;76269.13;5032144;28;19913;-65
2023/03/25 03:49:05;;;;;;;;;;;;;;;-142.75;100.00;76267.16;5031909;28;19966;-66
2023/03/25 03:51:35;;;;;;;;;;;;;;;-142.75;100.00;76271.09;5031576;28;20003;-66
2023/03/25 03:54:04;;;;;;;;;;;;;;;-142.75;100.00;76267.16;5032081;28;19917;-67
2023/03/25 03:56:35;;;;;;;;;;;;;;;-142.75;100.00;76269.13;5032232;28;19914;-66
2023/03/25 03:59:03;;;;;;;;;;;;;;;-142.75;100.00;76271.09;5032028;28;19917;-66
2023/03/25 04:01:36;;;;;;;;;;;;;;;-142.75;100.00;76267.16;5032016;28;19984;-66
2023/03/25 04:04:04;;;;;;;;;;;;;;;-142.75;100.00;76255.34;5031961;28;19924;-66
2023/03/25 04:06:55;;;;;;;;;;;;;;;-142.75;100.00;76267.16;5032039;28;20475;-65
2023/03/25 04:09:40;;;;;;;;;;;;;;;-142.75;100.00;76255.34;5022483;28;20567;-66
2023/03/25 04:12:09;;;;;;;;;;;;;;;-142.75;100.00;76265.19;5031949;28;19913;-66
2023/03/25 04:14:36;;;;;;;;;;;;;;;-142.75;100.00;76257.31;5031825;28;20441;-66
2023/03/25 04:17:03;;;;;;;;;;;;;;;-142.75;100.00;76269.13;5031859;28;19920;-66
2023/03/25 04:19:28;;;;;;;;;;;;;;;-142.75;100.00;76261.25;5031942;28;19920;-66
2023/03/25 04:21:53;;;;;;;;;;;;;;;-142.75;100.00;76275.03;5031821;28;19913;-66
2023/03/25 04:24:18;;;;;;;;;;;;;;;-142.75;100.00;76271.09;5014007;28;20063;-66
2023/03/25 04:26:44;;;;;;;;;;;;;;;-142.75;100.00;76259.28;5031926;28;19995;-67
2023/03/25 04:29:12;;;;;;;;;;;;;;;-142.75;100.00;76267.16;5031657;28;20016;-64
2023/03/25 04:31:45;;;;;;;;;;;;;;;-142.75;100.00;76275.03;5014063;28;19913;-66
2023/03/25 04:34:12;;;;;;;;;;;;;;;-142.75;100.00;76284.88;5031786;28;19913;-66
2023/03/25 04:36:40;;;;;;;;;;;;;;;-142.75;100.00;76278.97;5013983;28;19913;-66
2023/03/25 04:39:06;;;;;;;;;;;;;;;-142.75;100.00;76286.84;5031576;28;19952;-65
2023/03/25 04:41:32;;;;;;;;;;;;;;;-142.75;100.00;76273.06;5031666;28;19955;-66
2023/03/25 04:43:57;;;;;;;;;;;;;;;-142.75;100.00;76273.06;5031511;28;19925;-66
2023/03/25 04:46:22;;;;;;;;;;;;;;;-142.75;100.00;76271.09;5014084;28;19920;-66
2023/03/25 04:48:48;;;;;;;;;;;;;;;-142.75;100.00;76277.00;5031742;28;19913;-66
2023/03/25 04:51:14;;;;;;;;;;;;;;;-142.75;100.00;76282.91;5031795;28;20000;-66
2023/03/25 04:53:40;;;;;;;;;;;;;;;-142.75;100.00;76300.63;5032166;28;20004;-66
2023/03/25 04:56:06;;;;;;;;;;;;;;;-142.75;100.00;76308.50;5032043;28;20468;-66
2023/03/25 04:58:32;;;;;;;;;;;;;;;-142.75;100.00;76294.72;5013776;28;19916;-66
2023/03/25 05:01:04;;;;;;;;;;;;;;;-142.75;100.00;76302.59;5031984;28;20000;-65
2023/03/25 05:03:29;;;;;;;;;;;;;;;-142.75;100.00;76304.56;5035003;28;19917;-66
2023/03/25 05:05:55;;;;;;;;;;;;;;;-142.75;100.00;76306.53;5035134;28;20285;-66
2023/03/25 05:08:21;;;;;;;;;;;;;;;-142.75;100.00;76298.66;5034983;28;19917;-66
2023/03/25 05:10:46;;;;;;;;;;;;;;;-142.75;100.00;76302.59;5035038;28;19913;-66
2023/03/25 05:13:12;;;;;;;;;;;;;;;-142.75;100.00;76306.53;5035102;28;19913;-66
2023/03/25 05:15:40;;;;;;;;;;;;;;;-142.75;100.00;76322.28;5034911;28;20388;-66
2023/03/25 05:18:09;;;;;;;;;;;;;;;-142.75;100.00;76318.34;5034958;28;19920;-66
2023/03/25 05:20:42;;;;;;;;;;;;;;;-142.75;100.00;76330.16;5017287;28;19921;-64
2023/03/25 05:23:11;;;;;;;;;;;;;;;-142.75;100.00;76332.13;5017098;28;19917;-66
2023/03/25 05:25:40;;;;;;;;;;;;;;;-142.75;100.00;76343.94;5034815;28;19952;-66
2023/03/25 05:28:08;;;;;;;;;;;;;;;-142.75;100.00;76349.81;5017024;28;19913;-66
2023/03/25 05:30:37;;;;;;;;;;;;;;;-142.75;100.00;76359.66;5034788;28;20385;-66
2023/03/25 05:33:03;;;;;;;;;;;;;;;-142.75;100.00;76349.81;5034650;28;20389;-66
2023/03/25 05:35:28;;;;;;;;;;;;;;;-142.75;100.00;76355.72;5014367;28;20015;-66
2023/03/25 05:37:54;;;;;;;;;;;;;;;-142.75;100.00;76355.72;5032367;28;19924;-66
2023/03/25 05:40:20;;;;;;;;;;;;;;;-142.75;100.00;76353.78;5033573;28;20412;-66
2023/03/25 05:42:45;;;;;;;;;;;;;;;-142.75;100.00;76347.84;5015681;28;19914;-66
2023/03/25 05:45:10;;;;;;;;;;;;;;;-142.75;100.00;76349.81;5034928;28;19917;-66
2023/03/25 05:47:36;;;;;;;;;;;;;;;-142.75;100.00;76355.72;5034437;28;19997;-64
2023/03/25 05:50:01;;;;;;;;;;;;;;;-142.75;100.00;76345.91;5016706;28;19913;-66
2023/03/25 05:52:26;;;;;;;;;;;;;;;-142.75;100.00;76361.63;5034135;28;19913;-66
2023/03/25 05:54:51;;;;;;;;;;;;;;;-142.75;100.00;76355.72;5016436;28;20066;-66
2023/03/25 05:57:17;;;;;;;;;;;;;;;-142.75;100.00;76349.81;5034216;28;20011;-66
2023/03/25 05:59:42;;;;;;;;;;;;;;;-142.75;100.00;76377.38;5034267;28;19991;-67
2023/03/25 06:02:11;;;;;;;;;;;;;;;-142.75;100.00;76349.81;5033938;28;19972;-68
2023/03/25 06:04:39;;;;;;;;;;;;;;;-142.75;100.00;76357.69;5033619;28;20416;-66
2023/03/25 06:07:12;;;;;;;;;;;;;;;-142.75;100.00;76353.78;5015302;28;19945;-66
2023/03/25 06:09:45;;;;;;;;;;;;;;;-142.75;100.00;76371.47;4996530;28;20011;-66
2023/03/25 06:12:13;;;;;;;;;;;;;;;-142.75;100.00;76353.78;5013513;28;19914;-66
2023/03/25 06:14:41;;;;;;;;;;;;;;;-142.75;100.00;76361.63;5013463;28;20480;-66
2023/03/25 06:17:07;;;;;;;;;;;;;;;-142.75;100.00;76361.63;4996368;28;19963;-67
2023/03/25 06:19:37;;;;;;;;;;;;;;;-142.75;100.00;76361.63;4996375;28;19914;-66
2023/03/25 06:22:03;;;;;;;;;;;;;;;-142.75;100.00;76345.91;5013776;28;19913;-66
2023/03/25 06:24:28;;;;;;;;;;;;;;;-142.75;100.00;76361.63;5013755;28;20024;-66
2023/03/25 06:26:53;;;;;;;;;;;;;;;-142.75;100.00;76363.59;5013847;28;19913;-66
2023/03/25 06:29:18;;;;;;;;;;;;;;;-142.75;100.00;76357.69;5013739;28;19967;-66
2023/03/25 06:31:43;;;;;;;;;;;;;;;-142.75;100.00;76365.56;5013744;28;19968;-67
2023/03/25 06:34:09;;;;;;;;;;;;;;;-142.75;100.00;76353.78;5013734;28;19965;-67
2023/03/25 06:36:34;;;;;;;;;;;;;;;-142.75;100.00;76367.53;4996242;28;19921;-67
2023/03/25 06:38:59;;;;;;;;;;;;;;;-142.75;100.00;76353.78;5013648;28;19971;-66
2023/03/25 06:41:25;;;;;;;;;;;;;;;-142.75;100.00;76349.81;5013578;28;19913;-66
2023/03/25 06:43:50;;;;;;;;;;;;;;;-142.75;100.00;76353.78;5013325;28;19922;-66
2023/03/25 06:46:15;;;;;;;;;;;;;;;-142.75;100.00;76353.78;5016284;28;19924;-66
2023/03/25 06:48:40;;;;;;;;;;;;;;;-142.75;100.00;76351.81;5015533;28;19924;-66
2023/03/25 06:51:06;;;;;;;;;;;;;;;-142.75;100.00;76355.72;5032717;28;19920;-66
2023/03/25 06:53:31;;;;;;;;;;;;;;;-142.75;100.00;76363.59;5032765;28;19919;-66
2023/03/25 06:55:59;;;;;;;;;;;;;;;-142.75;100.00;76353.78;5032929;28;19945;-67
2023/03/25 06:58:24;;;;;;;;;;;;;;;-142.75;100.00;76357.69;5015456;28;19959;-66
2023/03/25 07:00:55;;;;;;;;;;;;;;;-142.75;100.00;76353.78;5033027;28;20385;-66
2023/03/25 07:03:21;;;;;;;;;;;;;;;-142.75;100.00;76332.13;5033021;28;19956;-67
2023/03/25 07:05:47;;;;;;;;;;;;;;;-142.75;100.00;76347.84;5033046;28;19964;-66
2023/03/25 07:08:12;;;;;;;;;;;;;;;-142.75;100.00;76341.97;5032889;28;19940;-67
2023/03/25 07:10:37;;;;;;;;;;;;;;;-142.75;100.00;76343.94;5032835;28;20329;-67
2023/03/25 07:13:02;;;;;;;;;;;;;;;-142.75;100.00;76338.03;5032586;28;19920;-66
2023/03/25 07:15:28;;;;;;;;;;;;;;;-142.75;100.00;76343.94;5011789;28;20339;-66
2023/03/25 07:17:53;;;;;;;;;;;;;;;-142.75;100.00;76341.97;5012941;28;19957;-66
2023/03/25 07:20:18;;;;;;;;;;;;;;;-142.75;100.00;76357.69;5012992;28;19913;-67
2023/03/25 07:22:43;;;;;;;;;;;;;;;-142.75;100.00;76343.94;5012813;28;19920;-66
2023/03/25 07:25:09;;;;;;;;;;;;;;;-142.75;100.00;76359.66;5025581;28;19917;-67
2023/03/25 07:27:34;;;;;;;;;;;;;;;-142.75;100.00;76353.78;5032514;28;20389;-68
2023/03/25 07:29:59;;;;;;;;;;;;;;;-142.75;100.00;76343.94;5032601;28;19913;-66
2023/03/25 07:32:25;;;;;;;;;;;;;;;-142.75;100.00;76343.94;5032432;28;19913;-67
2023/03/25 07:34:50;;;;;;;;;;;;;;;-142.75;100.00;76353.78;5032425;28;19917;-66
2023/03/25 07:37:15;;;;;;;;;;;;;;;-142.75;100.00;76353.78;5032129;28;20368;-66
2023/03/25 07:39:40;;;;;;;;;;;;;;;-142.75;100.00;76367.53;5014703;28;19916;-65
2023/03/25 07:42:06;;;;;;;;;;;;;;;-142.75;100.00;76365.56;5032229;28;20004;-66
2023/03/25 07:44:31;;;;;;;;;;;;;;;-142.75;100.00;76369.50;5032188;28;19917;-67
2023/03/25 07:46:57;;;;;;;;;;;;;;;-142.75;100.00;76361.63;5032335;28;19980;-66
2023/03/25 07:49:22;;;;;;;;;;;;;;;-142.75;100.00;76365.56;5031667;28;19984;-66
2023/03/25 07:51:47;;;;;;;;;;;;;;;-142.75;100.00;76355.72;5028952;28;20424;-66
2023/03/25 07:54:12;;;;;;;;;;;;;;;-142.75;100.00;76359.66;5014347;28;19976;-66
2023/03/25 07:56:37;;;;;;;;;;;;;;;-142.75;100.00;76349.81;5012287;28;19949;-67
2023/03/25 07:59:03;;;;;;;;;;;;;;;-142.75;100.00;76326.22;4994675;28;20560;-67
2023/03/25 08:01:28;;;;;;;;;;;;;;;-142.75;100.00;76334.09;5017819;28;19940;-67
2023/03/25 08:03:54;;;;;;;;;;;;;;;-142.75;100.00;76322.28;5022071;28;19921;-67
2023/03/25 08:06:19;;;;;;;;;;;;;;;-142.75;100.00;76330.16;5021519;28;19913;-68
2023/03/25 08:08:45;;;;;;;;;;;;;;;-142.75;100.00;76320.31;5018278;28;19968;-66
2023/03/25 08:11:10;;;;;;;;;;;;;;;-142.75;100.00;76334.09;5012111;28;19917;-67
2023/03/25 08:13:38;;;;;;;;;;;;;;;-142.75;100.00;76345.91;5012149;28;19921;-67
2023/03/25 08:16:09;;;;;;;;;;;;;;;-142.75;100.00;76334.09;4997058;28;19924;-67
2023/03/25 08:18:34;;;;;;;;;;;;;;;-142.75;100.00;76341.97;5012126;28;19914;-66
2023/03/25 08:20:59;;;;;;;;;;;;;;;-142.75;100.00;76341.97;5012028;28;20016;-67
2023/03/25 08:23:25;;;;;;;;;;;;;;;-142.75;100.00;76314.41;5011961;28;19918;-67
2023/03/25 08:25:52;;;;;;;;;;;;;;;-142.75;100.00;76304.56;5012062;28;20384;-67
2023/03/25 08:28:21;;;;;;;;;;;;;;;-142.75;100.00;76308.50;4994377;28;19996;-67
2023/03/25 08:30:48;;;;;;;;;;;;;;;-142.75;100.00;76320.31;5012060;28;19913;-67
2023/03/25 08:33:13;;;;;;;;;;;;;;;-142.75;100.00;76306.53;5005889;28;19917;-67
2023/03/25 08:35:39;;;;;;;;;;;;;;;-142.75;100.00;76286.84;5026138;28;19924;-67
2023/03/25 08:38:05;;;;;;;;;;;;;;;-142.75;100.00;76306.53;5031571;28;20305;-68
2023/03/25 08:40:31;;;;;;;;;;;;;;;-142.75;100.00;76314.41;5022191;28;20015;-67
2023/03/25 08:42:57;;;;;;;;;;;;;;;-142.75;100.00;76298.66;5029689;28;20065;-68
2023/03/25 08:45:22;;;;;;;;;;;;;;;-142.75;100.00;76300.63;5025924;28;20385;-68
2023/03/25 08:47:47;;;;;;;;;;;;;;;-142.75;100.00;76290.78;5012635;28;20421;-67
2023/03/25 08:50:12;;;;;;;;;;;;;;;-142.75;100.00;76298.66;5035175;28;19913;-67
2023/03/25 08:52:37;;;;;;;;;;;;;;;-142.75;100.00;76284.88;5017197;28;19917;-67
2023/03/25 08:55:06;;;;;;;;;;;;;;;-142.75;100.00;76310.47;5023651;28;21567;-67
2023/03/25 08:57:31;;;;;;;;;;;;;;;-142.75;100.00;76310.47;5023384;28;20339;-68
2023/03/25 08:59:57;;;;;;;;;;;;;;;-142.75;100.00;76243.53;5016814;28;19913;-66
2023/03/25 09:02:22;;;;;;;;;;;;;;;-142.75;100.00;76210.06;5034636;28;20308;-65
2023/03/25 09:04:47;;;;;;;;;;;;;;;-142.75;100.00;76208.09;5033041;28;19952;-65
2023/03/25 09:07:13;;;;;;;;;;;;;;;-142.75;100.00;76219.91;5012954;28;19956;-66
2023/03/25 09:09:39;;;;;;;;;;;;;;;-142.75;100.00;76243.53;5033629;28;19924;-67
2023/03/25 09:12:04;;;;;;;;;;;;;;;-142.75;100.00;76235.66;5034698;28;19928;-66
2023/03/25 09:14:30;;;;;;;;;;;;;;;-142.75;100.00;76231.72;5013949;28;20310;-66
2023/03/25 09:16:55;;;;;;;;;;;;;;;-142.75;100.00;76245.50;5016846;28;20003;-66
2023/03/25 09:19:20;;;;;;;;;;;;;;;-142.75;100.00;76243.53;5034515;28;19917;-69
2023/03/25 09:21:45;;;;;;;;;;;;;;;-142.75;100.00;76247.47;5016520;28;20466;-67
2023/03/25 09:24:11;;;;;;;;;;;;;;;-142.75;100.00;76221.88;5034708;28;20495;-67
2023/03/25 09:26:36;;;;;;;;;;;;;;;-142.75;100.00;76196.31;5033933;28;19917;-66
2023/03/25 09:29:02;;;;;;;;;;;;;;;-142.75;100.00;76204.16;5025692;28;19940;-66
2023/03/25 09:31:27;;;;;;;;;;;;;;;-142.75;100.00;76170.72;5016558;28;19913;-67
2023/03/25 09:33:52;;;;;;;;;;;;;;;-142.75;100.00;76190.41;5033976;28;19920;-66
2023/03/25 09:36:17;;;;;;;;;;;;;;;-142.75;100.00;76164.81;5034008;28;19920;-65
2023/03/25 09:38:43;;;;;;;;;;;;;;;-142.75;100.00;76164.81;5033794;28;19924;-65
2023/03/25 09:41:21;;;;;;;;;;;;;;;-142.75;100.00;76168.75;5020912;28;20347;-64
2023/03/25 09:43:46;;;;;;;;;;;;;;;-142.75;100.00;76164.81;5033644;28;20384;-65
2023/03/25 09:46:11;;;;;;;;;;;;;;;-142.75;100.00;76172.69;5033799;28;19919;-64
2023/03/25 09:48:41;;;;;;;;;;;;;;;-142.75;100.00;76147.09;5032043;28;19913;-66
2023/03/25 09:51:17;;;;;;;;;;;;;;;-142.75;100.00;76129.38;5033141;28;20328;-66
2023/03/25 09:54:06;;;;;;;;;;;;;;;-142.75;100.00;76172.69;5034107;28;19920;-67
2023/03/25 09:56:34;;;;;;;;;;;;;;;-142.75;100.00;76172.69;5010276;28;19924;-67
2023/03/25 09:59:06;;;;;;;;;;;;;;;-142.75;100.00;76160.88;5033360;28;20011;-67
2023/03/25 10:01:34;;;;;;;;;;;;;;;-142.75;100.00;76158.91;5033529;28;20396;-67
2023/03/25 10:04:13;;;;;;;;;;;;;;;-142.75;100.00;76164.81;5033244;28;20446;-67
2023/03/25 10:06:57;;;;;;;;;;;;;;;-142.75;100.00;76170.72;5033778;28;19967;-66
2023/03/25 10:09:33;;;;;;;;;;;;;;;-142.75;100.00;76194.34;5022623;28;19913;-67
2023/03/25 10:12:19;;;;;;;;;;;;;;;-142.75;100.00;76196.31;5027112;28;19925;-67
2023/03/25 10:14:57;;;;;;;;;;;;;;;-142.75;100.00;76160.88;5010245;28;19917;-67
2023/03/25 10:17:39;;;;;;;;;;;;;;;-142.75;100.00;76188.44;5033297;28;19913;-66
2023/03/25 10:20:11;;;;;;;;;;;;;;;-142.75;100.00;76210.06;5033414;28;20411;-67
2023/03/25 10:22:55;;;;;;;;;;;;;;;-142.75;100.00;76233.69;5015507;28;19913;-66
2023/03/25 10:25:23;;;;;;;;;;;;;;;-142.75;100.00;76235.66;5033033;28;19928;-67
2023/03/25 10:27:50;;;;;;;;;;;;;;;-142.75;100.00;76223.84;5032948;28;19913;-67
2023/03/25 10:30:19;;;;;;;;;;;;;;;-142.75;100.00;76219.91;5032932;28;20004;-64
2023/03/25 10:32:52;;;;;;;;;;;;;;;-142.75;100.00;76206.13;5033131;28;19913;-69
2023/03/25 10:35:23;;;;;;;;;;;;;;;-142.75;100.00;76208.09;5032820;28;19967;-67
2023/03/25 10:37:51;;;;;;;;;;;;;;;-142.75;100.00;76208.09;5032636;28;20011;-67
2023/03/25 10:40:30;;;;;;;;;;;;;;;-142.75;100.00;76231.72;5011696;28;20427;-68
2023/03/25 10:43:03;;;;;;;;;;;;;;;-142.75;100.00;76231.72;5014271;28;19920;-65
2023/03/25 10:45:29;;;;;;;;;;;;;;;-142.75;100.00;76219.91;5032823;28;20765;-65
2023/03/25 10:47:59;;;;;;;;;;;;;;;-142.75;100.00;76221.88;5014609;28;19913;-67
2023/03/25 10:50:25;;;;;;;;;;;;;;;-142.75;100.00;76188.44;5032976;28;19967;-67
2023/03/25 10:52:51;;;;;;;;;;;;;;;-142.75;100.00;76164.81;5032660;28;19913;-68
2023/03/25 10:55:24;;;;;;;;;;;;;;;-142.75;100.00;76200.25;5015049;28;19913;-65
2023/03/25 10:57:50;;;;;;;;;;;;;;;-142.75;100.00;76176.63;5020073;28;19913;-67
2023/03/25 11:00:19;;;;;;;;;;;;;;;-142.75;100.00;76141.19;5032267;28;20465;-67
2023/03/25 11:02:45;;;;;;;;;;;;;;;-142.75;100.00;76131.34;5032549;28;19913;-67
2023/03/25 11:05:15;;;;;;;;;;;;;;;-142.75;100.00;76109.69;5010701;28;19922;-68
2023/03/25 11:07:43;;;;;;;;;;;;;;;-142.75;100.00;76129.38;5020967;28;19921;-68
2023/03/25 11:10:08;;;;;;;;;;;;;;;-142.75;100.00;76137.25;5021465;28;20442;-66
2023/03/25 11:12:33;;;;;;;;;;;;;;;-142.75;100.00;76160.88;5032218;28;19921;-67
2023/03/25 11:15:00;;;;;;;;;;;;;;;-142.75;100.00;76151.03;5012552;28;19916;-66
2023/03/25 11:17:26;;;;;;;;;;;;;;;-142.75;100.00;76188.44;5032185;28;19958;-66
2023/03/25 11:19:51;;;;;;;;;;;;;;;-142.75;100.00;76210.06;5013459;28;20028;-67
2023/03/25 11:22:27;;;;;;;;;;;;;;;-142.75;100.00;76198.28;5007080;28;20000;-66
2023/03/25 11:24:58;;;;;;;;;;;;;;;-142.75;100.00;76196.31;5005647;28;20396;-67
2023/03/25 11:27:25;;;;;;;;;;;;;;;-142.75;100.00;76212.03;5027097;28;20395;-67
2023/03/25 11:30:01;;;;;;;;;;;;;;;-142.75;100.00;76208.09;5014354;28;20304;-67
2023/03/25 11:32:32;;;;;;;;;;;;;;;-142.75;100.00;76231.72;5013974;28;19913;-67
2023/03/25 11:34:59;;;;;;;;;;;;;;;-142.75;100.00;76241.56;5003631;28;19964;-67
2023/03/25 11:37:29;;;;;;;;;;;;;;;-142.75;100.00;76223.84;5029375;28;19917;-67
2023/03/25 11:39:55;;;;;;;;;;;;;;;-142.75;100.00;76231.72;5032134;28;19913;-68
2023/03/25 11:42:21;;;;;;;;;;;;;;;-142.75;100.00;76233.69;5031654;28;20277;-68
2023/03/25 11:44:51;;;;;;;;;;;;;;;-142.75;100.00;76221.88;5031705;28;19921;-67
2023/03/25 11:47:20;;;;;;;;;;;;;;;-142.75;100.00;76198.28;5032345;28;19913;-67
2023/03/25 11:49:48;;;;;;;;;;;;;;;-142.75;100.00;76196.31;5031776;28;19955;-68
2023/03/25 11:52:16;;;;;;;;;;;;;;;-142.75;100.00;76186.47;5031581;28;19913;-68
2023/03/25 11:54:43;;;;;;;;;;;;;;;-142.75;100.00;76184.50;5014066;28;19913;-67
2023/03/25 11:57:13;;;;;;;;;;;;;;;-142.75;100.00;76192.38;5031405;28;19948;-68
2023/03/25 11:59:41;;;;;;;;;;;;;;;-142.75;100.00;76204.16;5031803;28;19913;-68
2023/03/25 12:02:22;;;;;;;;;;;;;;;-142.75;100.00;76231.72;5031161;28;20040;-65
2023/03/25 12:05:13;;;;;;;;;;;;;;;-142.75;100.00;76243.53;5013328;28;19953;-68
2023/03/25 12:07:40;;;;;;;;;;;;;;;-142.75;100.00;76223.84;5019510;28;20301;-67
2023/03/25 12:10:05;;;;;;;;;;;;;;;-142.75;100.00;76212.03;5030974;28;19921;-66
2023/03/25 12:12:46;;;;;;;;;;;;;;;-142.75;100.00;76200.25;5030896;28;20285;-67
2023/03/25 12:15:18;;;;;;;;;;;;;;;-142.75;100.00;76208.09;5031268;28;19917;-68
2023/03/25 12:17:49;;;;;;;;;;;;;;;-142.75;100.00;76206.13;5031514;28;20003;-67
2023/03/25 12:20:14;;;;;;;;;;;;;;;-142.75;100.00;76223.84;5031594;28;20299;-65
2023/03/25 12:22:39;;;;;;;;;;;;;;;-142.75;100.00;76188.44;5031166;28;20015;-67